Time;durP1;ratioP1;P1;durP2;ratioP2;P2;SDS_P1;SDS_P2;PMS_P1;PMS_P2;Temp;Humidity;BMP_temperature;BMP_pressure;BME280_temperature;BME280_humidity;BME280_pressure;Samples;Min_cycle;Max_cycle;Signal;HPM_P1;HPM_P2
2020/12/09 00:01:54;;;;;;;41.90;22.73;;;;;;;-1.62;70.11;100345.06;126595;1093;104619;-85
2020/12/09 00:07:23;;;;;;;43.90;22.77;;;;;;;-1.62;70.06;100356.16;126686;1093;105523;-77
2020/12/09 00:09:51;;;;;;;43.50;22.00;;;;;;;-1.63;70.18;100354.44;126450;1094;104423;-78
2020/12/09 00:12:19;;;;;;;44.13;22.47;;;;;;;-1.62;69.81;100352.73;126675;1093;104389;-78
2020/12/09 00:14:46;;;;;;;45.63;23.47;;;;;;;-1.62;69.94;100347.62;126685;1098;104458;-78
2020/12/09 00:17:15;;;;;;;42.87;22.53;;;;;;;-1.62;69.90;100347.62;126644;1098;104209;-77
2020/12/09 00:19:42;;;;;;;40.50;21.90;;;;;;;-1.62;70.06;100348.48;126662;1099;104410;-78
2020/12/09 00:22:12;;;;;;;45.97;22.30;;;;;;;-1.63;70.14;100356.99;126424;1096;104314;-79
2020/12/09 00:24:39;;;;;;;42.40;22.83;;;;;;;-1.64;69.70;100345.04;126465;1093;105404;-79
2020/12/09 00:27:06;;;;;;;42.23;22.42;;;;;;;-1.62;69.82;100352.73;126514;1098;104401;-78
2020/12/09 00:29:33;;;;;;;41.33;22.17;;;;;;;-1.63;69.69;100345.91;126651;1099;104404;-78
2020/12/09 00:32:03;;;;;;;40.30;22.70;;;;;;;-1.65;69.38;100358.66;126508;1098;104381;-78
2020/12/09 00:34:31;;;;;;;47.33;22.83;;;;;;;-1.67;69.75;100356.91;126755;1098;105817;-77
2020/12/09 00:36:58;;;;;;;40.73;22.93;;;;;;;-1.69;69.56;100353.47;126727;1093;104439;-79
2020/12/09 00:39:25;;;;;;;40.70;21.40;;;;;;;-1.70;69.75;100359.42;126705;1098;104507;-78
2020/12/09 00:41:52;;;;;;;41.40;21.70;;;;;;;-1.71;70.05;100352.58;126621;1093;104398;-79
2020/12/09 00:44:20;;;;;;;44.57;21.10;;;;;;;-1.71;69.55;100350.03;126464;1098;104452;-78
2020/12/09 00:46:47;;;;;;;42.83;22.00;;;;;;;-1.74;70.09;100355.95;126667;1098;104432;-78
2020/12/09 00:49:15;;;;;;;42.27;22.03;;;;;;;-1.75;70.08;100361.03;126498;1099;104405;-78
2020/12/09 00:51:42;;;;;;;47.00;22.60;;;;;;;-1.74;69.82;100349.97;126664;1098;103297;-76
2020/12/09 00:54:09;;;;;;;45.77;22.23;;;;;;;-1.75;69.67;100346.55;126636;1098;104459;-79
2020/12/09 00:56:42;;;;;;;42.50;21.35;;;;;;;-1.75;69.63;100343.14;126469;1093;104497;-78
2020/12/09 00:59:11;;;;;;;39.93;21.90;;;;;;;-1.77;70.20;100343.11;126512;1099;104465;-78
2020/12/09 01:01:39;;;;;;;42.00;22.17;;;;;;;-1.77;69.74;100352.48;126452;1099;104429;-79
2020/12/09 01:04:09;;;;;;;40.20;21.03;;;;;;;-1.79;69.68;100346.47;126528;1093;104490;-79
2020/12/09 01:06:36;;;;;;;42.43;20.90;;;;;;;-1.80;69.48;100349.83;126656;1093;104551;-79
2020/12/09 01:09:05;;;;;;;47.13;24.97;;;;;;;-1.78;69.52;100353.31;126460;1100;104493;-78
2020/12/09 01:11:33;;;;;;;46.87;23.47;;;;;;;-1.79;69.84;100342.23;126400;1100;104439;-78
2020/12/09 01:14:00;;;;;;;40.40;21.33;;;;;;;-1.82;69.53;100349.81;126419;1098;104879;-78
2020/12/09 01:16:28;;;;;;;44.75;22.60;;;;;;;-1.85;70.04;100347.20;126462;1093;104548;-78
2020/12/09 01:18:55;;;;;;;44.83;22.50;;;;;;;-1.84;69.94;100349.78;126390;1100;105288;-79
2020/12/09 01:21:32;;;;;;;43.60;22.90;;;;;;;-1.85;69.36;100336.97;126423;1093;104398;-79
2020/12/09 01:23:59;;;;;;;45.97;22.40;;;;;;;-1.83;70.27;100340.41;126634;1098;104428;-78
2020/12/09 01:26:26;;;;;;;41.83;21.67;;;;;;;-1.82;69.86;100339.58;126660;1098;103605;-79
2020/12/09 01:28:54;;;;;;;42.30;22.77;;;;;;;-1.84;69.98;100336.14;126450;1098;104391;-79
2020/12/09 01:31:22;;;;;;;44.87;23.17;;;;;;;-1.86;69.37;100340.36;126471;1100;104456;-79
2020/12/09 01:33:49;;;;;;;40.65;20.80;;;;;;;-1.90;69.83;100336.89;126642;1093;104388;-79
2020/12/09 01:36:22;;;;;;;47.23;23.33;;;;;;;-1.91;69.79;100344.53;126424;1096;104397;-79
2020/12/09 01:38:50;;;;;;;43.27;21.63;;;;;;;-1.91;69.44;100340.28;126666;1098;103387;-78
2020/12/09 01:41:22;;;;;;;45.03;21.33;;;;;;;-1.92;69.34;100340.25;126421;1099;103671;-79
2020/12/09 01:43:51;;;;;;;42.30;22.40;;;;;;;-1.94;69.25;100340.23;126646;1098;104539;-78
2020/12/09 01:46:30;;;;;;;41.75;22.55;;;;;;;-1.95;69.57;100338.50;126426;1097;104413;-80
2020/12/09 01:48:59;;;;;;;41.17;20.33;;;;;;;-1.97;69.41;100346.98;126489;1098;104372;-78
2020/12/09 01:51:28;;;;;;;41.73;21.10;;;;;;;-1.97;69.81;100358.06;126650;1098;104474;-78
2020/12/09 01:53:58;;;;;;;36.20;20.40;;;;;;;-1.97;69.98;100347.84;126656;1098;104522;-78
2020/12/09 01:56:26;;;;;;;43.70;21.77;;;;;;;-1.97;69.64;100342.73;126429;1098;104391;-78
2020/12/09 01:58:55;;;;;;;40.40;21.10;;;;;;;-1.97;69.70;100355.51;126454;1100;104375;-79
2020/12/09 02:01:23;;;;;;;40.63;21.13;;;;;;;-1.95;69.54;100348.73;126576;1100;104443;-79
2020/12/09 02:03:51;;;;;;;40.37;21.33;;;;;;;-1.95;69.45;100348.73;126465;1100;104483;-79
2020/12/09 02:06:19;;;;;;;42.50;22.40;;;;;;;-1.97;69.29;100350.40;126622;1098;104474;-79
2020/12/09 02:08:47;;;;;;;40.83;20.97;;;;;;;-1.99;69.53;100356.28;126406;1099;104484;-79
2020/12/09 02:11:16;;;;;;;41.50;22.43;;;;;;;-2.00;69.77;100344.33;126414;1093;104511;-79
2020/12/09 02:13:48;;;;;;;40.53;20.37;;;;;;;-2.00;69.81;100355.42;126406;1093;104375;-79
2020/12/09 02:16:18;;;;;;;43.10;20.87;;;;;;;-2.01;69.28;100358.81;126656;1093;104446;-78
2020/12/09 02:18:45;;;;;;;36.30;21.33;;;;;;;-2.01;69.01;100360.50;126712;1098;104491;-78
2020/12/09 02:21:12;;;;;;;43.70;21.77;;;;;;;-2.03;69.46;100370.70;126647;1098;104628;-79
2020/12/09 02:23:40;;;;;;;41.93;21.67;;;;;;;-2.04;69.54;100368.97;126447;1100;104394;-79
2020/12/09 02:26:07;;;;;;;39.50;21.00;;;;;;;-2.03;69.25;100375.81;126677;1098;104424;-79
2020/12/09 02:28:34;;;;;;;41.80;21.55;;;;;;;-2.04;68.92;100370.67;126646;1093;104532;-79
2020/12/09 02:31:02;;;;;;;41.93;20.80;;;;;;;-2.06;69.31;100362.97;126410;1093;104480;-78
2020/12/09 02:33:29;;;;;;;43.60;21.33;;;;;;;-2.06;69.71;100359.56;126656;1099;104596;-79
2020/12/09 02:35:58;;;;;;;36.47;19.90;;;;;;;-2.09;69.71;100357.80;126624;1098;104394;-79
2020/12/09 02:38:25;;;;;;;40.73;20.75;;;;;;;-2.09;69.35;100359.50;126651;1098;104799;-79
2020/12/09 02:40:52;;;;;;;43.00;21.33;;;;;;;-2.06;69.36;100354.45;126412;1100;104421;-78
2020/12/09 02:43:19;;;;;;;40.83;20.87;;;;;;;-2.05;69.72;100349.36;126400;1100;104491;-79
2020/12/09 02:45:46;;;;;;;38.70;20.00;;;;;;;-2.07;68.95;100347.61;126443;1100;104391;-79
2020/12/09 02:48:15;;;;;;;38.23;21.33;;;;;;;-2.08;69.47;100356.97;126451;1100;104498;-78
2020/12/09 02:50:42;;;;;;;43.53;20.67;;;;;;;-2.11;69.06;100351.80;126514;1098;104397;-78
2020/12/09 02:53:09;;;;;;;40.97;20.60;;;;;;;-2.13;69.50;100356.02;126411;1099;104481;-78
2020/12/09 02:55:36;;;;;;;40.73;20.57;;;;;;;-2.12;69.52;100355.19;126665;1093;104394;-79
2020/12/09 02:58:03;;;;;;;34.73;20.30;;;;;;;-2.16;69.27;100354.23;126420;1100;104998;-79
2020/12/09 03:00:31;;;;;;;35.73;19.97;;;;;;;-2.18;69.19;100360.16;126749;1098;104690;-78
2020/12/09 03:02:58;;;;;;;39.60;20.97;;;;;;;-2.18;68.91;100362.70;126638;1098;104860;-79
2020/12/09 03:05:25;;;;;;;37.07;20.13;;;;;;;-2.21;69.18;100354.98;126657;1093;104455;-78
2020/12/09 03:07:53;;;;;;;37.90;19.07;;;;;;;-2.20;69.29;100356.70;126662;1098;104506;-79
2020/12/09 03:10:20;;;;;;;38.08;20.05;;;;;;;-2.20;68.74;100356.70;126571;1093;104436;-78
2020/12/09 03:12:48;;;;;;;39.27;20.23;;;;;;;-2.22;69.54;100358.38;126433;1100;104478;-79
2020/12/09 03:15:15;;;;;;;35.67;18.63;;;;;;;-2.23;69.69;100361.76;126670;1099;104478;-79
2020/12/09 03:17:42;;;;;;;35.13;19.83;;;;;;;-2.25;69.24;100361.73;126682;1093;104451;-78
2020/12/09 03:20:09;;;;;;;38.83;19.93;;;;;;;-2.25;68.85;100358.31;126407;1100;104552;-78
2020/12/09 03:22:37;;;;;;;37.30;20.30;;;;;;;-2.24;68.69;100371.11;126431;1100;104365;-79
2020/12/09 03:25:04;;;;;;;38.57;21.37;;;;;;;-2.24;68.64;100360.03;126433;1099;104936;-79
2020/12/09 03:27:31;;;;;;;32.87;19.33;;;;;;;-2.25;69.10;100363.42;126703;1099;104465;-78
2020/12/09 03:29:58;;;;;;;37.53;19.50;;;;;;;-2.25;69.55;100373.64;126487;1099;104607;-79
2020/12/09 03:32:25;;;;;;;40.87;19.40;;;;;;;-2.28;69.09;100371.89;126665;1099;104448;-78
2020/12/09 03:34:52;;;;;;;35.57;20.13;;;;;;;-2.29;69.21;100375.27;126680;1098;104363;-78
2020/12/09 03:37:20;;;;;;;35.30;18.97;;;;;;;-2.31;69.15;100358.20;126655;1098;104519;-79
2020/12/09 03:39:47;;;;;;;36.17;19.07;;;;;;;-2.33;69.15;100370.08;126445;1100;104439;-78
2020/12/09 03:42:14;;;;;;;37.60;20.20;;;;;;;-2.36;68.84;100360.62;126409;1098;104493;-78
2020/12/09 03:44:42;;;;;;;36.85;19.60;;;;;;;-2.35;69.31;100356.38;126664;1098;104392;-78
2020/12/09 03:47:09;;;;;;;31.50;17.87;;;;;;;-2.36;69.63;100344.44;126411;1100;104388;-78
2020/12/09 03:49:36;;;;;;;37.20;19.20;;;;;;;-2.34;70.13;100340.22;126446;1098;104455;-79
2020/12/09 03:52:03;;;;;;;33.57;19.23;;;;;;;-2.31;69.48;100347.97;126441;1100;104397;-78
2020/12/09 03:54:31;;;;;;;35.40;19.33;;;;;;;-2.32;69.69;100336.03;126428;1100;104506;-78
2020/12/09 03:56:58;;;;;;;31.83;19.73;;;;;;;-2.37;69.97;100338.47;126458;1093;104401;-78
2020/12/09 03:59:25;;;;;;;33.77;19.13;;;;;;;-2.40;69.75;100347.77;126472;1094;104470;-79
2020/12/09 04:01:54;;;;;;;34.57;19.00;;;;;;;-2.42;69.65;100345.17;126459;1098;104529;-78
2020/12/09 04:04:21;;;;;;;35.37;20.20;;;;;;;-2.42;69.76;100349.42;126585;1098;104561;-78
2020/12/09 04:06:49;;;;;;;34.63;19.17;;;;;;;-2.43;69.57;100333.23;126651;1098;104407;-78
2020/12/09 04:09:16;;;;;;;37.60;20.10;;;;;;;-2.47;70.03;100337.42;126663;1098;104494;-79
2020/12/09 04:11:43;;;;;;;35.00;18.65;;;;;;;-2.48;69.92;100330.59;126417;1098;104534;-79
2020/12/09 04:14:10;;;;;;;35.57;20.17;;;;;;;-2.47;70.22;100329.77;126722;1098;104529;-77
2020/12/09 04:16:37;;;;;;;37.40;19.47;;;;;;;-2.45;69.44;100345.98;126600;1098;104531;-78
2020/12/09 04:19:05;;;;;;;33.05;18.85;;;;;;;-2.46;69.75;100334.04;126643;1098;104436;-79
2020/12/09 04:21:32;;;;;;;33.70;19.30;;;;;;;-2.45;69.99;100327.23;126638;1100;104500;-78
2020/12/09 04:23:59;;;;;;;36.90;19.73;;;;;;;-2.47;70.04;100339.12;126662;1098;104397;-78
2020/12/09 04:26:26;;;;;;;35.23;19.07;;;;;;;-2.48;70.31;100334.84;126394;1100;104573;-78
2020/12/09 04:28:53;;;;;;;37.77;19.80;;;;;;;-2.53;70.60;100339.83;126666;1099;104349;-79
2020/12/09 04:31:20;;;;;;;37.70;20.35;;;;;;;-2.52;69.90;100333.88;126618;1093;104487;-78
2020/12/09 04:33:56;;;;;;;34.13;17.93;;;;;;;-2.53;70.56;100336.41;126403;1099;104994;-79
2020/12/09 04:36:24;;;;;;;39.88;19.17;;;;;;;-2.55;70.84;100333.83;126674;1093;104490;-79
2020/12/09 04:38:52;;;;;;;38.70;19.83;;;;;;;-2.57;70.14;100348.25;126651;1098;104398;-79
2020/12/09 04:41:19;;;;;;;33.83;18.77;;;;;;;-2.57;70.71;100344.84;126399;1098;104484;-79
2020/12/09 04:43:47;;;;;;;34.15;18.65;;;;;;;-2.56;70.96;100333.80;126661;1099;104525;-79
2020/12/09 04:46:15;;;;;;;34.33;19.73;;;;;;;-2.58;70.89;100332.90;126658;1098;102287;-78
2020/12/09 04:48:58;;;;;;;34.63;18.35;;;;;;;-2.56;70.76;100336.34;126449;1098;104504;-79
2020/12/09 04:52:07;;;;;;;33.67;18.60;;;;;;;-2.52;70.62;100338.99;126631;1098;104466;-79
2020/12/09 04:54:34;;;;;;;36.10;19.70;;;;;;;-2.49;70.46;100336.53;126659;1098;104648;-79
2020/12/09 04:57:28;;;;;;;35.57;19.50;;;;;;;-2.49;70.74;100328.87;126667;1098;104471;-79
2020/12/09 05:00:15;;;;;;;39.97;20.13;;;;;;;-2.54;70.00;100319.36;126611;1096;104515;-78
2020/12/09 05:02:54;;;;;;;;;;;;;;;-2.58;69.96;100322.69;126726;1099;104407;-79
2020/12/09 05:05:23;;;;;;;35.03;19.27;;;;;;;-2.60;70.64;100327.77;126639;1098;104876;-78
2020/12/09 05:07:53;;;;;;;35.57;19.53;;;;;;;-2.60;70.91;100322.66;126732;1098;104469;-78
2020/12/09 05:10:23;;;;;;;38.60;20.23;;;;;;;-2.60;70.85;100325.20;126470;1098;104480;-79
2020/12/09 05:12:52;;;;;;;40.37;21.40;;;;;;;-2.60;70.97;100340.53;126705;1093;104398;-79
2020/12/09 05:15:23;;;;;;;33.30;18.70;;;;;;;-2.61;70.92;100338.80;126762;1098;104467;-79
2020/12/09 05:18:07;;;;;;;38.97;19.20;;;;;;;-2.64;70.42;100351.51;126445;1098;104525;-79
2020/12/09 05:20:36;;;;;;;33.00;18.33;;;;;;;-2.63;71.36;100345.57;126785;1098;104190;-78
2020/12/09 05:23:07;;;;;;;38.23;19.77;;;;;;;-2.61;71.02;100355.81;126760;1093;104391;-77
2020/12/09 05:25:36;;;;;;;42.00;20.60;;;;;;;-2.60;71.02;100355.84;126718;1093;104536;-78
2020/12/09 05:28:04;;;;;;;32.37;18.33;;;;;;;-2.62;71.01;100352.41;126711;1098;104416;-78
2020/12/09 05:30:47;;;;;;;36.87;20.27;;;;;;;-2.62;70.96;100351.55;126436;1100;104417;-78
2020/12/09 05:33:17;;;;;;;37.17;19.87;;;;;;;-2.63;71.14;100360.89;126477;1098;104429;-79
2020/12/09 05:36:15;;;;;;;38.47;18.77;;;;;;;-2.65;71.43;100351.48;126705;1099;104452;-79
2020/12/09 05:38:42;;;;;;;32.13;17.62;;;;;;;-2.71;70.72;100344.52;126458;1100;104389;-78
2020/12/09 05:41:13;;;;;;;33.95;18.35;;;;;;;-2.75;71.48;100348.70;126650;1098;104475;-79
2020/12/09 05:43:45;;;;;;;33.07;18.20;;;;;;;-2.77;71.22;100346.94;126381;1098;104295;-78
2020/12/09 05:46:13;;;;;;;37.07;19.97;;;;;;;-2.78;71.84;100350.33;126560;1100;104401;-78
2020/12/09 05:48:40;;;;;;;33.37;18.23;;;;;;;-2.81;72.19;100347.70;126651;1099;104467;-78
2020/12/09 05:51:09;;;;;;;33.37;18.67;;;;;;;-2.82;72.43;100353.64;126479;1099;104391;-78
2020/12/09 05:53:36;;;;;;;35.63;18.47;;;;;;;-2.83;71.97;100362.98;126694;1093;104423;-78
2020/12/09 05:56:15;;;;;;;34.10;18.93;;;;;;;-2.81;71.90;100368.98;126635;1098;104403;-78
2020/12/09 05:58:47;;;;;;;33.83;17.83;;;;;;;-2.78;72.23;100360.53;126459;1098;104455;-78
2020/12/09 06:01:21;;;;;;;36.60;19.97;;;;;;;-2.75;72.29;100355.49;126546;1098;104401;-78
2020/12/09 06:03:52;;;;;;;33.23;19.07;;;;;;;-2.73;72.57;100358.94;126550;1098;102771;-78
2020/12/09 06:06:31;;;;;;;32.40;18.53;;;;;;;-2.75;71.95;100351.25;126687;1098;104426;-79
2020/12/09 06:09:00;;;;;;;34.20;19.73;;;;;;;-2.76;72.38;100363.98;126527;1093;104888;-79
2020/12/09 06:11:30;;;;;;;34.33;18.80;;;;;;;-2.77;72.47;100364.81;126684;1099;104193;-78
2020/12/09 06:13:58;;;;;;;37.60;18.30;;;;;;;-2.77;71.80;100354.60;126514;1099;104310;-79
2020/12/09 06:16:26;;;;;;;36.57;20.57;;;;;;;-2.78;72.85;100370.75;126640;1098;104529;-77
2020/12/09 06:18:55;;;;;;;34.47;19.50;;;;;;;-2.80;72.68;100357.95;126447;1098;104536;-79
2020/12/09 06:21:24;;;;;;;36.33;18.67;;;;;;;-2.80;72.51;100359.64;126646;1093;104551;-78
2020/12/09 06:23:52;;;;;;;36.67;19.13;;;;;;;-2.82;73.14;100368.95;126405;1100;104381;-79
2020/12/09 06:26:20;;;;;;;31.53;17.50;;;;;;;-2.84;72.91;100350.19;126459;1099;104474;-78
2020/12/09 06:28:50;;;;;;;30.97;17.30;;;;;;;-2.85;73.15;100364.64;126487;1100;104394;-79
2020/12/09 06:31:22;;;;;;;34.03;17.87;;;;;;;-2.86;73.26;100385.89;126458;1100;104375;-79
2020/12/09 06:33:54;;;;;;;34.90;19.13;;;;;;;-2.84;73.28;100380.82;126542;1098;104644;-78
2020/12/09 06:36:30;;;;;;;43.37;21.10;;;;;;;-2.83;73.34;100377.44;126472;1093;104196;-79
2020/12/09 06:39:20;;;;;;;41.37;19.80;;;;;;;-2.82;72.64;100371.51;126453;1099;104378;-78
2020/12/09 06:41:47;;;;;;;39.07;20.57;;;;;;;-2.78;72.84;100383.51;126442;1099;104454;-79
2020/12/09 06:44:16;;;;;;;37.33;20.13;;;;;;;-2.76;72.55;100399.72;126658;1093;104510;-79
2020/12/09 06:46:43;;;;;;;35.13;18.10;;;;;;;-2.75;73.26;100370.81;126400;1100;104420;-78
2020/12/09 06:49:29;;;;;;;33.67;19.00;;;;;;;-2.78;73.40;100378.41;126654;1098;104551;-79
2020/12/09 06:52:09;;;;;;;37.20;18.70;;;;;;;-2.81;73.09;100375.78;126675;1093;104509;-78
2020/12/09 06:54:45;;;;;;;40.00;20.65;;;;;;;-2.80;73.86;100387.72;126643;1093;104477;-78
2020/12/09 06:57:18;;;;;;;32.40;18.27;;;;;;;-2.80;73.44;100377.51;126462;1099;104548;-79
2020/12/09 06:59:48;;;;;;;34.00;18.70;;;;;;;-2.79;73.14;100379.23;126616;1098;104366;-79
2020/12/09 07:02:29;;;;;;;38.73;19.87;;;;;;;-2.80;73.11;100374.95;126676;1099;104314;-79
2020/12/09 07:04:56;;;;;;;36.03;19.93;;;;;;;-2.77;72.79;100372.47;126494;1100;103322;-78
2020/12/09 07:07:41;;;;;;;35.13;19.20;;;;;;;-2.76;73.36;100369.09;126670;1098;104437;-79
2020/12/09 07:10:23;;;;;;;38.37;19.33;;;;;;;-2.73;73.63;100369.16;126424;1093;104507;-78
2020/12/09 07:13:10;;;;;;;38.27;18.90;;;;;;;-2.71;73.54;100369.19;126428;1100;104512;-78
2020/12/09 07:15:45;;;;;;;40.90;19.63;;;;;;;-2.69;72.77;100378.63;126466;1100;104401;-79
2020/12/09 07:18:13;;;;;;;39.63;20.30;;;;;;;-2.68;73.26;100369.28;126616;1098;104334;-78
2020/12/09 07:20:42;;;;;;;37.10;19.33;;;;;;;-2.69;72.99;100375.19;126486;1099;104417;-79
2020/12/09 07:23:09;;;;;;;38.67;20.33;;;;;;;-2.70;73.59;100381.12;126461;1096;105736;-79
2020/12/09 07:25:36;;;;;;;42.73;23.50;;;;;;;-2.71;73.49;100393.02;126420;1100;104609;-79
2020/12/09 07:28:04;;;;;;;46.75;23.50;;;;;;;-2.70;73.27;100381.12;126392;1099;104394;-79
2020/12/09 07:30:32;;;;;;;40.93;21.00;;;;;;;-2.68;73.42;100395.67;126632;1099;104506;-78
2020/12/09 07:33:00;;;;;;;40.20;19.80;;;;;;;-2.62;73.43;100382.17;126509;1093;104480;-78
2020/12/09 07:35:28;;;;;;;41.73;21.00;;;;;;;-2.56;73.28;100390.83;126443;1100;104549;-78
2020/12/09 07:37:58;;;;;;;38.80;20.33;;;;;;;-2.56;72.53;100390.83;126564;1093;104227;-79
2020/12/09 07:40:34;;;;;;;41.07;19.93;;;;;;;-2.55;72.42;100396.80;126481;1099;104481;-79
2020/12/09 07:43:10;;;;;;;43.13;21.50;;;;;;;-2.54;73.23;100401.94;126424;1100;104384;-78
2020/12/09 07:45:44;;;;;;;42.40;20.93;;;;;;;-2.51;73.11;100396.06;126434;1100;104452;-79
2020/12/09 07:48:19;;;;;;;43.10;22.77;;;;;;;-2.48;72.65;100391.89;126432;1097;104523;-79
2020/12/09 07:50:49;;;;;;;39.80;21.37;;;;;;;-2.47;72.66;100383.39;126419;1094;104565;-79
2020/12/09 07:53:17;;;;;;;40.37;22.33;;;;;;;-2.42;72.58;100388.59;126528;1098;104397;-79
2020/12/09 07:55:44;;;;;;;44.23;21.83;;;;;;;-2.37;73.12;100389.55;126634;1093;104382;-79
2020/12/09 07:58:17;;;;;;;38.27;20.23;;;;;;;-2.36;72.75;100391.28;126691;1099;104405;-79
2020/12/09 08:00:58;;;;;;;46.00;21.60;;;;;;;-2.41;72.20;100392.02;126434;1093;104675;-78
2020/12/09 08:03:27;;;;;;;38.67;19.93;;;;;;;-2.47;72.30;100393.61;126399;1098;104439;-78
2020/12/09 08:05:57;;;;;;;40.37;20.00;;;;;;;-2.49;72.17;100399.52;126428;1099;104403;-79
2020/12/09 08:08:27;;;;;;;41.97;21.20;;;;;;;-2.47;72.43;100408.93;126686;1098;104343;-79
2020/12/09 08:11:06;;;;;;;38.13;20.60;;;;;;;-2.51;73.39;100401.17;126503;1096;104490;-79
2020/12/09 08:13:35;;;;;;;40.53;20.90;;;;;;;-2.57;73.02;100408.67;126501;1100;104525;-80
2020/12/09 08:16:07;;;;;;;36.70;19.17;;;;;;;-2.61;73.12;100410.30;126621;1098;105032;-79
2020/12/09 08:18:36;;;;;;;37.20;18.90;;;;;;;-2.63;73.70;100432.38;126674;1093;104510;-78
2020/12/09 08:21:04;;;;;;;39.93;21.30;;;;;;;-2.66;73.46;100418.69;126498;1093;105535;-78
2020/12/09 08:23:50;;;;;;;36.07;19.63;;;;;;;-2.69;72.94;100422.03;126725;1098;104466;-79
2020/12/09 08:26:33;;;;;;;43.33;21.90;;;;;;;-2.72;73.57;100427.04;126495;1100;104369;-79
2020/12/09 08:29:06;;;;;;;38.70;19.70;;;;;;;-2.70;73.57;100414.31;126417;1100;104289;-80
2020/12/09 08:31:34;;;;;;;40.33;20.63;;;;;;;-2.65;73.59;100411.06;126704;1098;104529;-80
2020/12/09 08:34:12;;;;;;;41.13;20.83;;;;;;;-2.56;73.53;100418.06;126471;1100;104465;-80
2020/12/09 08:36:40;;;;;;;45.17;20.70;;;;;;;-2.52;73.16;100409.63;126444;1100;104913;-79
2020/12/09 08:39:07;;;;;;;41.77;20.60;;;;;;;-2.52;73.49;100410.50;126703;1098;104445;-79
2020/12/09 08:41:36;;;;;;;38.17;20.30;;;;;;;-2.51;72.46;100403.73;126406;1099;104561;-79
2020/12/09 08:44:07;;;;;;;39.13;20.53;;;;;;;-2.51;73.05;100412.25;126679;1098;104389;-79
2020/12/09 08:46:35;;;;;;;37.67;20.30;;;;;;;-2.48;72.71;100414.01;126467;1093;104510;-79
2020/12/09 08:49:03;;;;;;;39.47;20.20;;;;;;;-2.50;72.76;100411.42;126407;1099;104394;-79
2020/12/09 08:51:33;;;;;;;37.10;20.57;;;;;;;-2.52;72.54;100417.30;126487;1099;104407;-79
2020/12/09 08:54:05;;;;;;;38.50;20.63;;;;;;;-2.55;73.33;100394.25;126456;1099;104427;-79
2020/12/09 08:56:34;;;;;;;38.80;20.90;;;;;;;-2.56;72.76;100393.39;126576;1093;104433;-80
2020/12/09 08:59:02;;;;;;;44.83;20.63;;;;;;;-2.52;72.68;100392.63;126452;1093;104510;-79
2020/12/09 09:01:35;;;;;;;40.40;19.77;;;;;;;-2.49;72.93;100387.61;126646;1093;104421;-80
2020/12/09 09:04:07;;;;;;;40.17;21.00;;;;;;;-2.50;72.99;100385.88;126473;1098;104490;-80
2020/12/09 09:06:34;;;;;;;36.30;19.07;;;;;;;-2.48;72.38;100388.47;126485;1099;103140;-79
2020/12/09 09:09:06;;;;;;;37.20;18.50;;;;;;;-2.50;72.47;100388.44;126676;1098;104343;-80
2020/12/09 09:11:33;;;;;;;37.03;19.63;;;;;;;-2.51;72.57;100396.93;126402;1100;104439;-80
2020/12/09 09:14:01;;;;;;;34.57;20.00;;;;;;;-2.50;72.28;100392.69;126518;1100;106404;-79
2020/12/09 09:16:28;;;;;;;39.97;20.30;;;;;;;-2.49;73.00;100390.16;126632;1093;104580;-81
2020/12/09 09:18:56;;;;;;;37.20;19.97;;;;;;;-2.50;72.89;100403.77;126378;1099;102977;-79
2020/12/09 09:21:23;;;;;;;38.20;20.03;;;;;;;-2.52;72.71;100400.28;126460;1099;104475;-79
2020/12/09 09:23:51;;;;;;;37.60;20.53;;;;;;;-2.52;72.27;100405.39;126421;1099;104497;-79
2020/12/09 09:26:18;;;;;;;42.63;20.73;;;;;;;-2.48;72.62;100409.77;126414;1100;104363;-79
2020/12/09 09:28:45;;;;;;;40.10;20.70;;;;;;;-2.45;71.99;100406.41;126443;1099;104455;-79
2020/12/09 09:31:13;;;;;;;39.57;19.83;;;;;;;-2.46;72.69;100392.78;126658;1098;105003;-79
2020/12/09 09:33:40;;;;;;;39.48;19.92;;;;;;;-2.40;72.67;100389.49;126478;1093;104451;-79
2020/12/09 09:36:07;;;;;;;37.27;20.43;;;;;;;-2.36;72.30;100390.41;126571;1099;104516;-78
2020/12/09 09:38:34;;;;;;;37.83;20.10;;;;;;;-2.34;72.11;100393.86;126643;1099;103178;-78
2020/12/09 09:41:02;;;;;;;35.67;20.73;;;;;;;-2.30;72.28;100385.46;126712;1093;104484;-79
2020/12/09 09:43:29;;;;;;;34.50;18.67;;;;;;;-2.29;72.37;100392.30;126379;1100;104414;-79
2020/12/09 09:45:59;;;;;;;38.02;20.55;;;;;;;-2.30;71.67;100381.22;126547;1098;104395;-79
2020/12/09 09:48:27;;;;;;;37.23;19.47;;;;;;;-2.32;71.66;100405.00;126469;1100;103274;-80
2020/12/09 09:50:55;;;;;;;35.67;19.53;;;;;;;-2.36;72.20;100395.52;126462;1100;105450;-79
2020/12/09 09:53:22;;;;;;;42.27;20.80;;;;;;;-2.32;71.95;100390.54;126380;1100;104523;-79
2020/12/09 09:55:49;;;;;;;38.60;19.50;;;;;;;-2.26;72.17;100384.69;126453;1100;104398;-79
2020/12/09 09:58:19;;;;;;;42.48;20.68;;;;;;;-2.22;72.25;100379.67;126676;1098;104471;-80
2020/12/09 10:00:46;;;;;;;37.73;19.83;;;;;;;-2.17;71.74;100377.20;126530;1100;104372;-79
2020/12/09 10:03:13;;;;;;;38.50;20.20;;;;;;;-2.19;71.66;100379.73;126385;1096;104462;-79
2020/12/09 10:05:41;;;;;;;37.28;20.25;;;;;;;-2.20;71.39;100370.34;126558;1098;105585;-78
2020/12/09 10:08:08;;;;;;;38.27;20.13;;;;;;;-2.19;71.87;100373.77;126674;1093;104366;-79
2020/12/09 10:10:36;;;;;;;44.05;21.07;;;;;;;-2.20;72.08;100377.14;126650;1093;104410;-79
2020/12/09 10:13:03;;;;;;;38.73;19.60;;;;;;;-2.19;71.96;100368.65;126426;1099;104413;-79
2020/12/09 10:15:30;;;;;;;39.00;20.17;;;;;;;-2.16;71.73;100373.82;126633;1093;104558;-79
2020/12/09 10:17:58;;;;;;;37.33;20.47;;;;;;;-2.13;71.33;100373.91;126395;1100;103416;-79
2020/12/09 10:20:25;;;;;;;42.03;21.52;;;;;;;-2.12;71.83;100367.97;126611;1093;104490;-78
2020/12/09 10:22:53;;;;;;;37.53;20.13;;;;;;;-2.11;71.94;100363.72;126593;1098;104842;-79
2020/12/09 10:25:22;;;;;;;40.17;20.37;;;;;;;-2.12;71.45;100362.86;126674;1098;104509;-78
2020/12/09 10:27:50;;;;;;;44.40;21.50;;;;;;;-2.12;71.36;100367.11;126625;1093;103387;-78
2020/12/09 10:30:17;;;;;;;49.67;22.87;;;;;;;-2.12;71.36;100360.30;126466;1099;104560;-79
2020/12/09 10:32:46;;;;;;;40.50;21.53;;;;;;;-2.10;71.29;100363.75;126407;1100;104551;-78
2020/12/09 10:35:15;;;;;;;46.00;22.03;;;;;;;-2.11;71.22;100362.02;126374;1098;104402;-78
2020/12/09 10:37:43;;;;;;;46.33;21.30;;;;;;;-2.10;71.44;100350.97;126462;1098;104459;-78
2020/12/09 10:40:11;;;;;;;44.10;22.60;;;;;;;-2.06;71.31;100364.66;126441;1099;104445;-79
2020/12/09 10:42:38;;;;;;;38.57;20.87;;;;;;;-2.04;71.02;100348.53;126378;1100;104561;-78
2020/12/09 10:45:08;;;;;;;45.07;21.50;;;;;;;-2.02;71.55;100354.53;126437;1099;104423;-79
2020/12/09 10:47:36;;;;;;;40.07;20.63;;;;;;;-2.04;70.96;100357.89;126470;1100;104885;-78
2020/12/09 10:50:04;;;;;;;41.57;21.10;;;;;;;-2.04;71.01;100353.64;126566;1093;104461;-79
2020/12/09 10:52:32;;;;;;;36.43;20.07;;;;;;;-2.04;71.03;100351.08;126442;1099;103336;-78
2020/12/09 10:55:00;;;;;;;39.43;21.20;;;;;;;-2.02;71.46;100358.78;126641;1099;104513;-78
2020/12/09 10:57:28;;;;;;;40.27;20.97;;;;;;;-2.05;70.96;100351.92;126473;1099;104404;-79
2020/12/09 10:59:55;;;;;;;45.57;21.20;;;;;;;-2.05;71.33;100344.25;126604;1098;104465;-79
2020/12/09 11:02:22;;;;;;;42.57;22.37;;;;;;;-2.05;71.05;100344.25;126708;1098;104532;-79
2020/12/09 11:04:50;;;;;;;44.13;21.77;;;;;;;-2.03;70.79;100345.14;126581;1098;103687;-79
2020/12/09 11:07:17;;;;;;;49.83;22.17;;;;;;;-2.01;71.12;100358.81;126608;1093;104419;-78
2020/12/09 11:09:44;;;;;;;45.70;22.73;;;;;;;-1.98;71.51;100351.20;126463;1094;104490;-78